createdAt,value
2019-02-07T00:00:47.029Z,88.20
2019-02-07T00:03:17.843Z,87.90
2019-02-07T00:05:47.090Z,87.40
2019-02-07T00:08:16.342Z,87.40
2019-02-07T00:10:45.879Z,87.80
2019-02-07T00:13:15.156Z,87.80
2019-02-07T00:15:44.411Z,88.10
2019-02-07T00:18:14.030Z,88.40
2019-02-07T00:20:43.855Z,88.40
2019-02-07T00:23:13.099Z,88.90
2019-02-07T00:25:42.347Z,89.30
2019-02-07T00:28:11.702Z,89.70
2019-02-07T00:30:42.024Z,89.70
2019-02-07T00:33:11.823Z,90.00
2019-02-07T00:35:41.071Z,90.10
2019-02-07T00:38:11.627Z,90.30
2019-02-07T00:40:40.994Z,90.60
2019-02-07T00:43:10.247Z,90.70
2019-02-07T00:45:39.567Z,90.60
2019-02-07T00:48:08.806Z,90.50
2019-02-07T00:50:39.132Z,90.30
2019-02-07T00:53:08.588Z,90.10
2019-02-07T00:55:37.840Z,90.30
2019-02-07T00:58:07.571Z,90.70
2019-02-07T01:00:37.082Z,90.60
2019-02-07T01:03:06.723Z,90.50
2019-02-07T01:05:35.971Z,90.70
2019-02-07T01:08:05.591Z,90.90
2019-02-07T01:10:35.219Z,91.30
2019-02-07T01:13:04.909Z,91.40
2019-02-07T01:15:34.155Z,91.60
2019-02-07T01:18:05.143Z,91.80
2019-02-07T01:20:34.396Z,92.00
2019-02-07T01:23:03.651Z,91.90
2019-02-07T01:25:32.927Z,91.90
2019-02-07T01:28:02.500Z,92.10
2019-02-07T01:30:31.739Z,92.20
2019-02-07T01:33:01.023Z,92.10
2019-02-07T01:35:31.924Z,92.00
2019-02-07T01:38:01.171Z,91.60
2019-02-07T01:40:30.595Z,91.60
2019-02-07T01:42:59.842Z,91.60
2019-02-07T01:45:29.466Z,91.40
2019-02-07T01:47:59.075Z,91.50
2019-02-07T01:50:28.464Z,91.20
2019-02-07T01:52:57.863Z,91.10
2019-02-07T01:55:27.403Z,91.00
2019-02-07T01:57:56.655Z,91.20
2019-02-07T02:00:25.912Z,90.70
2019-02-07T02:02:55.164Z,90.90
2019-02-07T02:05:24.419Z,90.90
2019-02-07T02:07:53.707Z,91.10
2019-02-07T02:10:27.840Z,91.20
2019-02-07T02:12:59.075Z,91.20
2019-02-07T02:15:28.318Z,91.40
2019-02-07T02:17:58.025Z,91.70
2019-02-07T02:20:27.475Z,91.70
2019-02-07T02:22:56.881Z,91.80
2019-02-07T02:25:26.137Z,91.60
2019-02-07T02:27:55.387Z,91.40
2019-02-07T02:30:30.004Z,91.30
2019-02-07T02:32:59.237Z,91.30
2019-02-07T02:35:28.539Z,91.40
2019-02-07T02:37:58.690Z,91.10
2019-02-07T02:40:27.932Z,90.70
2019-02-07T02:42:57.223Z,90.40
2019-02-07T02:45:37.043Z,90.30
2019-02-07T02:47:57.620Z,90.00
2019-02-07T02:50:26.873Z,89.00
2019-02-07T02:52:56.127Z,87.20
2019-02-07T02:55:28.117Z,86.50
2019-02-07T02:57:57.438Z,85.70
2019-02-07T03:00:28.322Z,84.40
2019-02-07T03:03:02.245Z,84.40
2019-02-07T03:05:43.755Z,84.30
2019-02-07T03:08:26.863Z,84.00
2019-02-07T03:11:01.173Z,84.30
2019-02-07T03:13:48.866Z,84.30
2019-02-07T03:16:29.010Z,84.50
2019-02-07T03:19:03.174Z,84.50
2019-02-07T03:21:50.061Z,84.20
2019-02-07T03:24:39.830Z,85.80
2019-02-07T03:27:19.756Z,84.80
2019-02-07T03:29:56.340Z,84.60
2019-02-07T03:32:45.303Z,85.10
2019-02-07T03:35:22.147Z,85.10
2019-02-07T03:38:02.599Z,85.00
2019-02-07T03:40:50.704Z,85.00
2019-02-07T03:43:24.518Z,84.80
2019-02-07T03:46:02.955Z,85.10
2019-02-07T03:48:31.063Z,85.00
2019-02-07T03:51:01.957Z,85.30
2019-02-07T03:53:50.824Z,85.50
2019-02-07T03:56:38.342Z,86.10
2019-02-07T03:59:09.372Z,86.20
2019-02-07T04:01:40.270Z,86.20
2019-02-07T04:04:20.082Z,86.40
2019-02-07T04:06:50.972Z,86.50
2019-02-07T04:09:22.862Z,86.30
2019-02-07T04:12:02.611Z,86.40
2019-02-07T04:14:39.544Z,86.20
2019-02-07T04:17:10.707Z,86.40
2019-02-07T04:19:56.643Z,87.00
2019-02-07T04:22:30.408Z,87.20
2019-02-07T04:25:01.972Z,87.40
2019-02-07T04:27:38.964Z,86.90
2019-02-07T04:30:13.719Z,86.20
2019-02-07T04:33:02.880Z,85.80
2019-02-07T04:35:37.014Z,85.80
2019-02-07T04:38:07.904Z,86.40
2019-02-07T04:40:55.940Z,86.50
2019-02-07T04:43:26.832Z,86.40
2019-02-07T04:46:00.963Z,86.80
2019-02-07T04:48:32.038Z,87.60
2019-02-07T04:51:12.191Z,88.20
2019-02-07T04:53:51.967Z,87.80
2019-02-07T04:56:33.918Z,87.80
2019-02-07T04:59:08.276Z,87.50
2019-02-07T05:01:39.544Z,87.60
2019-02-07T05:04:28.883Z,87.20
2019-02-07T05:07:02.946Z,87.20
2019-02-07T05:09:33.843Z,87.70
2019-02-07T05:12:11.284Z,87.60
2019-02-07T05:14:42.175Z,87.20
2019-02-07T05:17:28.486Z,87.60
2019-02-07T05:20:15.591Z,87.60
2019-02-07T05:22:49.485Z,87.70
2019-02-07T05:25:32.732Z,87.00
2019-02-07T05:28:04.320Z,86.60
2019-02-07T05:30:40.966Z,87.10
2019-02-07T05:33:11.902Z,86.50
2019-02-07T05:35:45.756Z,85.80
2019-02-07T05:38:19.668Z,86.20
2019-02-07T05:40:52.470Z,86.00
2019-02-07T05:43:24.390Z,85.90
2019-02-07T05:45:58.940Z,85.40
2019-02-07T05:48:46.602Z,85.50
2019-02-07T05:51:20.445Z,84.90
2019-02-07T05:54:07.938Z,85.10
2019-02-07T05:56:41.530Z,85.10
2019-02-07T05:59:29.902Z,84.80
2019-02-07T06:02:03.979Z,84.80
2019-02-07T06:04:40.875Z,85.30
2019-02-07T06:07:14.610Z,85.50
2019-02-07T06:09:49.045Z,84.90
2019-02-07T06:12:22.790Z,85.10
2019-02-07T06:14:54.355Z,85.20
2019-02-07T06:17:41.819Z,85.60
2019-02-07T06:20:18.972Z,85.70
2019-02-07T06:23:06.218Z,86.00
2019-02-07T06:25:42.920Z,85.90
2019-02-07T06:28:13.811Z,86.50
2019-02-07T06:30:45.094Z,87.20
2019-02-07T06:33:33.009Z,87.10
2019-02-07T06:36:13.131Z,87.20
2019-02-07T06:38:44.074Z,87.10
2019-02-07T06:41:31.893Z,86.90
2019-02-07T06:44:18.568Z,86.90
2019-02-07T06:46:56.244Z,86.60
2019-02-07T06:49:44.026Z,86.70
2019-02-07T06:52:20.894Z,86.90
2019-02-07T06:55:08.874Z,87.60
2019-02-07T06:57:56.341Z,87.60
2019-02-07T07:00:27.259Z,87.80
2019-02-07T07:03:03.982Z,87.60
2019-02-07T07:05:51.893Z,87.90
2019-02-07T07:08:39.111Z,87.10
2019-02-07T07:11:12.700Z,87.00
2019-02-07T07:13:46.279Z,87.60
2019-02-07T07:16:33.771Z,87.60
2019-02-07T07:19:08.584Z,87.80
2019-02-07T07:21:56.896Z,87.70
2019-02-07T07:24:44.330Z,88.80
2019-02-07T07:27:31.514Z,87.40
2019-02-07T07:30:02.479Z,86.90
2019-02-07T07:32:49.601Z,87.10
2019-02-07T07:35:36.575Z,86.70
2019-02-07T07:38:08.800Z,86.00
2019-02-07T07:40:46.198Z,85.80
2019-02-07T07:43:20.581Z,85.50
2019-02-07T07:45:54.158Z,86.20
2019-02-07T07:48:27.811Z,85.10
2019-02-07T07:51:02.031Z,84.80
2019-02-07T07:53:45.623Z,84.40
2019-02-07T07:56:32.989Z,84.40
2019-02-07T07:59:20.555Z,83.90
2019-02-07T08:01:57.360Z,84.20
2019-02-07T08:04:31.007Z,84.60
2019-02-07T08:07:02.304Z,84.20
2019-02-07T08:09:37.011Z,84.00
2019-02-07T08:12:07.898Z,84.40
2019-02-07T08:14:44.655Z,85.00
2019-02-07T08:17:32.403Z,84.20
2019-02-07T08:20:03.347Z,83.30
2019-02-07T08:22:49.559Z,84.10
2019-02-07T08:25:22.250Z,83.80
2019-02-07T08:28:09.606Z,83.90
2019-02-07T08:30:49.619Z,84.60
2019-02-07T08:33:29.311Z,83.60
2019-02-07T08:36:00.548Z,82.60
2019-02-07T08:38:37.621Z,82.80
2019-02-07T08:41:26.031Z,83.10
2019-02-07T08:44:13.983Z,83.10
2019-02-07T08:46:49.652Z,84.40
2019-02-07T08:49:37.087Z,83.70
2019-02-07T08:52:08.015Z,84.30
2019-02-07T08:54:47.852Z,85.70
2019-02-07T08:57:22.224Z,85.90
2019-02-07T08:59:53.427Z,86.50
2019-02-07T09:02:36.363Z,87.80
2019-02-07T09:05:17.504Z,89.40
2019-02-07T09:07:57.275Z,90.10
2019-02-07T09:10:44.726Z,90.60
2019-02-07T09:13:28.767Z,91.40
2019-02-07T09:16:05.885Z,91.90
2019-02-07T09:18:51.608Z,93.00
2019-02-07T09:21:40.024Z,93.70
2019-02-07T09:24:10.942Z,94.50
2019-02-07T09:26:58.154Z,94.80
2019-02-07T09:29:32.030Z,95.10
2019-02-07T09:32:19.159Z,95.40
2019-02-07T09:34:58.870Z,95.40
2019-02-07T09:37:47.853Z,95.70
2019-02-07T09:40:21.223Z,95.80
2019-02-07T09:42:52.111Z,96.20
2019-02-07T09:45:34.883Z,96.40
2019-02-07T09:48:08.792Z,95.90
2019-02-07T09:50:39.786Z,95.70
2019-02-07T09:53:25.846Z,96.00
2019-02-07T09:56:13.039Z,95.80
2019-02-07T09:58:50.020Z,95.80
2019-02-07T10:01:45.339Z,96.00
2019-02-07T10:04:32.455Z,95.80
2019-02-07T10:07:06.255Z,96.20
2019-02-07T10:09:40.202Z,96.30
2019-02-07T10:12:27.786Z,96.40
2019-02-07T10:15:16.912Z,96.20
2019-02-07T10:17:49.430Z,96.20
2019-02-07T10:20:39.128Z,95.90
2019-02-07T10:23:25.095Z,96.00
2019-02-07T10:25:56.284Z,96.20
2019-02-07T10:28:39.062Z,96.20
2019-02-07T10:31:26.078Z,96.20
2019-02-07T10:34:10.143Z,95.70
2019-02-07T10:36:50.270Z,95.90
2019-02-07T10:39:24.314Z,95.50
2019-02-07T10:41:58.356Z,95.70
2019-02-07T10:44:30.175Z,95.40
2019-02-07T10:47:20.010Z,95.10
2019-02-07T10:49:59.346Z,95.20
2019-02-07T10:52:32.446Z,95.30
2019-02-07T10:55:18.725Z,94.80
2019-02-07T10:57:58.640Z,94.90
2019-02-07T11:00:32.890Z,95.00
2019-02-07T11:03:15.919Z,94.90
2019-02-07T11:05:54.590Z,95.00
2019-02-07T11:08:43.747Z,95.20
2019-02-07T11:11:17.626Z,95.20
2019-02-07T11:13:48.521Z,95.30
2019-02-07T11:16:32.514Z,95.50
2019-02-07T11:19:21.341Z,95.60
2019-02-07T11:21:57.796Z,95.40
2019-02-07T11:24:45.133Z,95.50
2019-02-07T11:27:16.963Z,95.50
2019-02-07T11:29:50.853Z,95.50
2019-02-07T11:32:21.775Z,95.40
2019-02-07T11:35:09.199Z,95.40
2019-02-07T11:37:40.639Z,95.20
2019-02-07T11:40:13.768Z,95.00
2019-02-07T11:42:48.615Z,95.20
2019-02-07T11:45:36.204Z,95.20
2019-02-07T11:48:23.759Z,95.30
2019-02-07T11:50:57.400Z,95.20
2019-02-07T11:53:31.608Z,95.20
2019-02-07T11:56:18.942Z,95.20
2019-02-07T11:59:08.323Z,95.40
2019-02-07T12:01:51.445Z,95.50
2019-02-07T12:04:25.067Z,95.50
2019-02-07T12:06:55.938Z,95.30
2019-02-07T12:09:30.531Z,95.50
2019-02-07T12:12:17.818Z,95.00
2019-02-07T12:14:54.707Z,95.00
2019-02-07T12:17:31.656Z,94.60
2019-02-07T12:20:11.698Z,94.40
2019-02-07T12:23:00.273Z,94.20
2019-02-07T12:25:48.572Z,94.40
2019-02-07T12:28:31.733Z,94.50
2019-02-07T12:31:08.896Z,94.60
2019-02-07T12:33:42.723Z,94.70
2019-02-07T12:36:32.064Z,94.20
2019-02-07T12:39:05.843Z,94.40
2019-02-07T12:41:54.434Z,94.60
2019-02-07T12:44:28.035Z,94.20
2019-02-07T12:47:15.687Z,94.30
2019-02-07T12:50:03.487Z,93.80
2019-02-07T12:52:43.361Z,93.40
2019-02-07T12:55:30.114Z,93.80
2019-02-07T12:58:13.207Z,93.50
2019-02-07T13:00:45.362Z,93.40
2019-02-07T13:03:16.290Z,93.30
2019-02-07T13:05:47.174Z,93.40
2019-02-07T13:08:33.089Z,93.50
2019-02-07T13:11:07.319Z,93.50
2019-02-07T13:13:48.834Z,93.10
2019-02-07T13:16:25.666Z,93.50
2019-02-07T13:19:12.908Z,93.50
2019-02-07T13:21:46.543Z,93.90
2019-02-07T13:24:29.500Z,94.10
2019-02-07T13:27:16.712Z,94.20
2019-02-07T13:29:57.932Z,94.20
2019-02-07T13:32:37.949Z,94.00
2019-02-07T13:35:25.639Z,94.20
2019-02-07T13:37:56.535Z,93.80
2019-02-07T13:40:27.554Z,93.00
2019-02-07T13:43:00.194Z,92.10
2019-02-07T13:45:43.857Z,92.10
2019-02-07T13:48:29.683Z,92.80
2019-02-07T13:51:18.643Z,93.00
2019-02-07T13:53:49.532Z,93.40
2019-02-07T13:56:23.450Z,93.50
2019-02-07T13:58:54.347Z,93.90
2019-02-07T14:01:28.194Z,94.20
2019-02-07T14:04:04.985Z,93.90
2019-02-07T14:06:38.779Z,93.90
2019-02-07T14:09:25.854Z,93.70
2019-02-07T14:11:59.768Z,93.10
2019-02-07T14:14:33.586Z,91.70
2019-02-07T14:17:11.639Z,91.10
2019-02-07T14:19:42.527Z,90.30
2019-02-07T14:22:30.263Z,87.50
2019-02-07T14:25:01.146Z,85.40
2019-02-07T14:27:41.879Z,84.70
2019-02-07T14:30:14.208Z,85.70
2019-02-07T14:32:45.535Z,86.30
2019-02-07T14:35:25.596Z,88.40
2019-02-07T14:38:05.506Z,88.40
2019-02-07T14:40:48.207Z,89.50
2019-02-07T14:43:22.295Z,91.00
2019-02-07T14:45:53.186Z,92.10
2019-02-07T14:48:24.647Z,92.40
2019-02-07T14:50:53.891Z,93.10
2019-02-07T14:53:23.813Z,93.50
2019-02-07T14:55:53.079Z,93.40
2019-02-07T14:58:22.331Z,93.10
2019-02-07T15:00:51.587Z,92.00
2019-02-07T15:03:20.963Z,91.40
2019-02-07T15:05:50.335Z,90.80
2019-02-07T15:08:19.594Z,90.60
2019-02-07T15:10:48.838Z,90.50
2019-02-07T15:13:18.099Z,90.90
2019-02-07T15:15:47.338Z,91.00
2019-02-07T15:18:16.944Z,91.40
2019-02-07T15:20:46.571Z,91.30
2019-02-07T15:23:15.798Z,90.60
2019-02-07T15:25:45.050Z,90.30
2019-02-07T15:28:14.300Z,91.10
2019-02-07T15:30:43.590Z,91.30
2019-02-07T15:33:12.831Z,91.90
2019-02-07T15:35:46.135Z,92.50
2019-02-07T15:38:15.391Z,92.70
2019-02-07T15:40:44.643Z,93.30
2019-02-07T15:43:13.886Z,94.40
2019-02-07T15:45:43.135Z,95.30
2019-02-07T15:48:12.430Z,95.80
2019-02-07T15:50:41.720Z,96.10
2019-02-07T15:53:11.630Z,96.30
2019-02-07T15:55:42.742Z,96.30
2019-02-07T15:58:13.030Z,96.20
2019-02-07T16:00:43.933Z,96.40
2019-02-07T16:03:18.170Z,96.90
2019-02-07T16:05:47.491Z,97.30
2019-02-07T16:08:17.046Z,97.50
2019-02-07T16:10:46.295Z,97.70
2019-02-07T16:13:15.538Z,97.80
2019-02-07T16:15:46.322Z,98.00
2019-02-07T16:18:15.903Z,98.10
2019-02-07T16:20:48.870Z,98.20
2019-02-07T16:23:16.020Z,98.30
2019-02-07T16:25:45.271Z,98.30
2019-02-07T16:28:14.514Z,98.30
2019-02-07T16:30:43.759Z,98.30
2019-02-07T16:33:13.327Z,98.30
2019-02-07T16:35:42.579Z,98.40
2019-02-07T16:38:11.918Z,98.40
2019-02-07T16:40:41.175Z,98.50
2019-02-07T16:43:10.414Z,98.60
2019-02-07T16:45:39.695Z,98.80
2019-02-07T16:48:08.943Z,98.80
2019-02-07T16:50:38.196Z,98.80
2019-02-07T16:53:07.450Z,98.90
2019-02-07T16:55:36.699Z,98.90
2019-02-07T16:58:08.018Z,99.00
2019-02-07T17:00:37.787Z,99.00
2019-02-07T17:03:07.206Z,98.90
2019-02-07T17:05:37.937Z,99.00
2019-02-07T17:08:07.407Z,99.00
2019-02-07T17:10:41.483Z,99.00
2019-02-07T17:13:15.127Z,99.20
2019-02-07T17:15:44.416Z,99.30
2019-02-07T17:18:13.668Z,99.10
2019-02-07T17:20:42.990Z,99.00
2019-02-07T17:23:12.244Z,99.00
2019-02-07T17:25:41.562Z,99.00
2019-02-07T17:28:11.016Z,99.10
2019-02-07T17:30:40.264Z,99.30
2019-02-07T17:33:10.995Z,99.20
2019-02-07T17:35:40.244Z,99.30
2019-02-07T17:38:09.491Z,99.30
2019-02-07T17:40:38.854Z,99.30
2019-02-07T17:43:08.101Z,99.50
2019-02-07T17:45:37.425Z,99.50
2019-02-07T17:48:06.641Z,99.60
2019-02-07T17:50:37.590Z,99.50
2019-02-07T17:53:11.620Z,99.50
2019-02-07T17:55:40.958Z,99.40
2019-02-07T17:58:12.320Z,99.30
2019-02-07T18:01:01.911Z,99.30
2019-02-07T18:03:32.619Z,99.40
2019-02-07T18:06:02.826Z,99.40
2019-02-07T18:08:32.659Z,99.30
2019-02-07T18:11:02.254Z,99.50
2019-02-07T18:13:31.498Z,99.60
2019-02-07T18:16:00.815Z,99.50
2019-02-07T18:18:30.039Z,99.30
2019-02-07T18:20:59.282Z,99.60
2019-02-07T18:23:28.929Z,99.10
2019-02-07T18:25:58.175Z,99.10
2019-02-07T18:28:28.895Z,99.00
2019-02-07T18:30:58.134Z,98.90
2019-02-07T18:33:27.499Z,98.90
2019-02-07T18:35:56.756Z,99.20
2019-02-07T18:38:26.303Z,99.20
2019-02-07T18:40:56.655Z,99.10
2019-02-07T18:43:26.034Z,99.20
2019-02-07T18:45:55.282Z,99.30
2019-02-07T18:48:24.530Z,99.10
2019-02-07T18:50:53.770Z,99.00
2019-02-07T18:53:23.482Z,99.10
2019-02-07T18:55:52.730Z,99.40
2019-02-07T18:58:22.626Z,99.00
2019-02-07T19:00:51.881Z,98.70
2019-02-07T19:03:21.127Z,99.00
2019-02-07T19:05:51.216Z,99.20
2019-02-07T19:08:21.751Z,99.20
2019-02-07T19:10:50.987Z,99.30
2019-02-07T19:13:20.230Z,99.20
2019-02-07T19:15:52.591Z,99.20
2019-02-07T19:18:21.871Z,99.20
2019-02-07T19:20:51.115Z,99.20
2019-02-07T19:23:20.762Z,99.10
2019-02-07T19:25:51.084Z,99.20
2019-02-07T19:28:20.623Z,99.10
2019-02-07T19:30:49.923Z,99.10
2019-02-07T19:33:22.381Z,99.10
2019-02-07T19:35:50.047Z,99.20
2019-02-07T19:38:19.698Z,99.20
2019-02-07T19:40:48.947Z,99.40
2019-02-07T19:43:18.768Z,99.40
2019-02-07T19:45:48.019Z,99.30
2019-02-07T19:48:17.275Z,99.40
2019-02-07T19:50:46.518Z,99.40
2019-02-07T19:53:15.775Z,99.40
2019-02-07T19:55:45.020Z,99.50
2019-02-07T19:58:14.258Z,99.40
2019-02-07T20:00:45.214Z,99.30
2019-02-07T20:03:14.458Z,99.30
2019-02-07T20:05:43.707Z,99.20
2019-02-07T20:08:12.954Z,99.30
2019-02-07T20:10:42.207Z,99.10
2019-02-07T20:13:11.461Z,99.10
2019-02-07T20:15:42.650Z,99.10
2019-02-07T20:18:14.551Z,99.00
2019-02-07T20:20:43.817Z,98.90
2019-02-07T20:23:13.068Z,98.90
2019-02-07T20:25:42.619Z,98.90
2019-02-07T20:28:11.938Z,98.60
2019-02-07T20:30:43.966Z,99.00
2019-02-07T20:33:13.215Z,98.50
2019-02-07T20:35:42.452Z,98.50
2019-02-07T20:38:11.698Z,98.50
2019-02-07T20:40:40.942Z,98.50
2019-02-07T20:43:11.305Z,98.40
2019-02-07T20:45:40.550Z,98.30
2019-02-07T20:48:09.786Z,98.30
2019-02-07T20:50:39.202Z,98.40
2019-02-07T20:53:08.447Z,98.30
2019-02-07T20:55:37.699Z,98.30
2019-02-07T20:58:07.415Z,98.30
2019-02-07T21:00:40.222Z,98.10
2019-02-07T21:03:09.985Z,98.10
2019-02-07T21:05:39.546Z,98.10
2019-02-07T21:08:08.814Z,98.00
2019-02-07T21:10:41.332Z,98.00
2019-02-07T21:13:13.151Z,97.80
2019-02-07T21:15:42.503Z,97.70
2019-02-07T21:18:11.758Z,97.60
2019-02-07T21:20:42.086Z,97.60
2019-02-07T21:23:11.330Z,97.60
2019-02-07T21:25:43.602Z,97.60
2019-02-07T21:28:13.142Z,97.60
2019-02-07T21:30:42.386Z,97.50
2019-02-07T21:33:11.631Z,97.70
2019-02-07T21:35:40.878Z,97.60
2019-02-07T21:38:10.157Z,97.40
2019-02-07T21:40:39.767Z,97.30
2019-02-07T21:43:09.010Z,97.30
2019-02-07T21:45:38.258Z,97.20
2019-02-07T21:48:08.450Z,97.20
2019-02-07T21:50:37.693Z,97.30
2019-02-07T21:53:07.018Z,97.40
2019-02-07T21:55:37.640Z,97.40
2019-02-07T21:58:08.515Z,97.40
2019-02-07T22:00:40.029Z,97.50
2019-02-07T22:03:10.810Z,97.30
2019-02-07T22:05:42.587Z,97.20
2019-02-07T22:08:11.838Z,97.10
2019-02-07T22:10:41.156Z,97.00
2019-02-07T22:13:10.695Z,96.90
2019-02-07T22:15:39.940Z,96.80
2019-02-07T22:18:09.186Z,96.60
2019-02-07T22:20:38.431Z,96.60
2019-02-07T22:23:08.402Z,96.50
2019-02-07T22:25:37.647Z,96.60
2019-02-07T22:28:07.299Z,96.70
2019-02-07T22:30:37.275Z,96.80
2019-02-07T22:33:07.754Z,96.90
2019-02-07T22:35:37.044Z,97.00
2019-02-07T22:38:07.026Z,97.00
2019-02-07T22:40:36.275Z,97.10
2019-02-07T22:43:05.822Z,97.20
2019-02-07T22:45:36.134Z,97.30
2019-02-07T22:48:05.959Z,97.30
2019-02-07T22:50:35.208Z,97.10
2019-02-07T22:53:04.623Z,97.10
2019-02-07T22:55:34.783Z,97.10
2019-02-07T22:58:05.063Z,97.00
2019-02-07T23:00:39.202Z,96.90
2019-02-07T23:03:18.251Z,97.20
2019-02-07T23:05:47.998Z,96.80
2019-02-07T23:08:17.248Z,96.70
2019-02-07T23:10:46.799Z,96.60
2019-02-07T23:13:16.355Z,96.70
2019-02-07T23:15:45.727Z,96.70
2019-02-07T23:18:14.971Z,96.80
2019-02-07T23:20:44.228Z,96.90
2019-02-07T23:23:13.466Z,97.00
2019-02-07T23:25:43.094Z,97.00
2019-02-07T23:28:12.337Z,97.00
2019-02-07T23:30:41.583Z,97.00
2019-02-07T23:33:10.940Z,97.10
2019-02-07T23:35:40.183Z,97.30
2019-02-07T23:38:09.437Z,97.50
2019-02-07T23:40:39.070Z,97.60
2019-02-07T23:43:08.586Z,97.60
2019-02-07T23:45:37.835Z,97.50
2019-02-07T23:48:07.074Z,97.40
2019-02-07T23:50:36.343Z,97.40
2019-02-07T23:53:14.416Z,97.40
2019-02-07T23:55:38.182Z,97.40
2019-02-07T23:58:07.526Z,97.60
